sensor_id;sensor_type;location;lat;lon;timestamp;pressure;altitude;pressure_sealevel;temperature;humidity
79077;BME280;68477;42.698;23.342;2023-08-17T00:00:06;95491.47;;;21.97;68.00
79077;BME280;68477;42.698;23.342;2023-08-17T00:02:35;95488.22;;;22.06;66.72
79077;BME280;68477;42.698;23.342;2023-08-17T00:05:01;95494.03;;;22.15;66.77
79077;BME280;68477;42.698;23.342;2023-08-17T00:07:26;95485.03;;;22.21;66.23
79077;BME280;68477;42.698;23.342;2023-08-17T00:09:52;95487.97;;;21.96;67.32
79077;BME280;68477;42.698;23.342;2023-08-17T00:12:17;95486.78;;;21.75;67.49
79077;BME280;68477;42.698;23.342;2023-08-17T00:14:42;95490.50;;;21.63;68.66
79077;BME280;68477;42.698;23.342;2023-08-17T00:17:08;95495.00;;;21.86;67.14
79077;BME280;68477;42.698;23.342;2023-08-17T00:19:33;95488.94;;;21.90;66.73
79077;BME280;68477;42.698;23.342;2023-08-17T00:21:59;95489.28;;;21.42;68.33
79077;BME280;68477;42.698;23.342;2023-08-17T00:24:24;95491.06;;;21.06;70.08
79077;BME280;68477;42.698;23.342;2023-08-17T00:26:50;95497.88;;;21.32;69.40
79077;BME280;68477;42.698;23.342;2023-08-17T00:29:15;95489.56;;;21.69;67.25
79077;BME280;68477;42.698;23.342;2023-08-17T00:31:41;95490.97;;;21.71;66.95
79077;BME280;68477;42.698;23.342;2023-08-17T00:34:07;95495.91;;;22.03;65.93
79077;BME280;68477;42.698;23.342;2023-08-17T00:36:32;95489.91;;;21.72;66.66
79077;BME280;68477;42.698;23.342;2023-08-17T00:38:57;95479.53;;;21.88;66.35
79077;BME280;68477;42.698;23.342;2023-08-17T00:41:23;95477.88;;;21.98;65.96
79077;BME280;68477;42.698;23.342;2023-08-17T00:43:48;95482.66;;;21.85;66.13
79077;BME280;68477;42.698;23.342;2023-08-17T00:46:14;95483.47;;;21.85;66.08
79077;BME280;68477;42.698;23.342;2023-08-17T00:48:40;95479.59;;;22.04;65.92
79077;BME280;68477;42.698;23.342;2023-08-17T00:51:07;95484.97;;;21.93;65.54
79077;BME280;68477;42.698;23.342;2023-08-17T00:53:32;95481.94;;;22.01;65.38
79077;BME280;68477;42.698;23.342;2023-08-17T00:55:59;95475.41;;;21.45;66.80
79077;BME280;68477;42.698;23.342;2023-08-17T00:58:26;95481.31;;;21.59;66.41
79077;BME280;68477;42.698;23.342;2023-08-17T01:00:52;95473.66;;;21.50;66.04
79077;BME280;68477;42.698;23.342;2023-08-17T01:03:18;95475.41;;;21.57;65.36
79077;BME280;68477;42.698;23.342;2023-08-17T01:05:46;95472.53;;;21.87;64.67
79077;BME280;68477;42.698;23.342;2023-08-17T01:08:11;95482.53;;;21.91;63.67
79077;BME280;68477;42.698;23.342;2023-08-17T01:10:52;95479.28;;;21.89;63.80
79077;BME280;68477;42.698;23.342;2023-08-17T01:13:44;95471.19;;;21.61;64.59
79077;BME280;68477;42.698;23.342;2023-08-17T01:16:15;95474.22;;;21.06;66.66
79077;BME280;68477;42.698;23.342;2023-08-17T01:18:42;95473.28;;;21.12;66.63
79077;BME280;68477;42.698;23.342;2023-08-17T01:21:10;95476.69;;;20.96;67.72
79077;BME280;68477;42.698;23.342;2023-08-17T01:23:35;95467.41;;;20.56;69.08
79077;BME280;68477;42.698;23.342;2023-08-17T01:26:01;95474.91;;;20.89;67.59
79077;BME280;68477;42.698;23.342;2023-08-17T01:28:27;95473.53;;;21.57;65.54
79077;BME280;68477;42.698;23.342;2023-08-17T01:31:00;95475.25;;;21.75;63.44
79077;BME280;68477;42.698;23.342;2023-08-17T01:33:41;95471.88;;;21.68;63.50
79077;BME280;68477;42.698;23.342;2023-08-17T01:38:36;95472.28;;;21.36;65.13
79077;BME280;68477;42.698;23.342;2023-08-17T01:41:06;95468.53;;;21.14;65.73
79077;BME280;68477;42.698;23.342;2023-08-17T01:43:32;95472.97;;;21.08;65.62
79077;BME280;68477;42.698;23.342;2023-08-17T01:45:59;95468.63;;;20.84;66.26
79077;BME280;68477;42.698;23.342;2023-08-17T01:48:25;95468.97;;;20.76;66.52
79077;BME280;68477;42.698;23.342;2023-08-17T01:50:50;95466.72;;;20.61;67.08
79077;BME280;68477;42.698;23.342;2023-08-17T01:53:16;95467.69;;;20.90;66.00
79077;BME280;68477;42.698;23.342;2023-08-17T01:55:41;95470.03;;;20.98;65.73
79077;BME280;68477;42.698;23.342;2023-08-17T01:58:07;95468.97;;;20.87;65.89
79077;BME280;68477;42.698;23.342;2023-08-17T02:00:33;95471.03;;;20.62;66.69
79077;BME280;68477;42.698;23.342;2023-08-17T02:02:58;95469.63;;;20.59;67.13
79077;BME280;68477;42.698;23.342;2023-08-17T02:05:23;95469.50;;;20.54;67.34
79077;BME280;68477;42.698;23.342;2023-08-17T02:07:49;95462.78;;;20.52;67.92
79077;BME280;68477;42.698;23.342;2023-08-17T02:10:14;95462.59;;;20.05;69.37
79077;BME280;68477;42.698;23.342;2023-08-17T02:12:40;95470.06;;;20.26;68.47
79077;BME280;68477;42.698;23.342;2023-08-17T02:15:06;95470.84;;;20.15;68.37
79077;BME280;68477;42.698;23.342;2023-08-17T02:17:31;95467.28;;;20.21;68.60
79077;BME280;68477;42.698;23.342;2023-08-17T02:19:57;95459.00;;;20.11;69.40
79077;BME280;68477;42.698;23.342;2023-08-17T02:22:22;95467.47;;;19.35;71.91
79077;BME280;68477;42.698;23.342;2023-08-17T02:24:48;95464.19;;;19.76;71.12
79077;BME280;68477;42.698;23.342;2023-08-17T02:27:13;95461.63;;;19.81;70.58
79077;BME280;68477;42.698;23.342;2023-08-17T02:29:39;95461.50;;;19.94;69.70
79077;BME280;68477;42.698;23.342;2023-08-17T02:32:04;95460.50;;;20.07;69.43
79077;BME280;68477;42.698;23.342;2023-08-17T02:34:30;95463.34;;;19.39;70.94
79077;BME280;68477;42.698;23.342;2023-08-17T02:36:55;95462.72;;;19.18;72.08
79077;BME280;68477;42.698;23.342;2023-08-17T02:39:21;95466.16;;;19.81;70.44
79077;BME280;68477;42.698;23.342;2023-08-17T02:41:46;95459.13;;;19.86;69.52
79077;BME280;68477;42.698;23.342;2023-08-17T02:44:14;95449.84;;;19.89;68.97
79077;BME280;68477;42.698;23.342;2023-08-17T02:46:40;95457.22;;;19.75;69.72
79077;BME280;68477;42.698;23.342;2023-08-17T02:49:05;95459.34;;;19.30;71.50
79077;BME280;68477;42.698;23.342;2023-08-17T02:51:31;95447.59;;;19.56;70.45
79077;BME280;68477;42.698;23.342;2023-08-17T02:53:56;95456.81;;;19.53;69.65
79077;BME280;68477;42.698;23.342;2023-08-17T02:56:22;95456.97;;;19.76;69.04
79077;BME280;68477;42.698;23.342;2023-08-17T02:58:47;95451.13;;;19.86;68.91
79077;BME280;68477;42.698;23.342;2023-08-17T03:01:13;95446.97;;;19.54;69.01
79077;BME280;68477;42.698;23.342;2023-08-17T03:03:38;95452.47;;;18.97;70.86
79077;BME280;68477;42.698;23.342;2023-08-17T03:06:04;95445.53;;;19.33;69.99
79077;BME280;68477;42.698;23.342;2023-08-17T03:08:30;95453.50;;;19.58;69.16
79077;BME280;68477;42.698;23.342;2023-08-17T03:10:56;95457.16;;;19.63;68.54
79077;BME280;68477;42.698;23.342;2023-08-17T03:13:21;95454.38;;;19.70;68.53
79077;BME280;68477;42.698;23.342;2023-08-17T03:15:47;95452.16;;;19.30;69.60
79077;BME280;68477;42.698;23.342;2023-08-17T03:18:12;95461.19;;;18.86;71.58
79077;BME280;68477;42.698;23.342;2023-08-17T03:20:38;95454.03;;;19.48;69.34
79077;BME280;68477;42.698;23.342;2023-08-17T03:23:03;95461.00;;;19.67;68.53
79077;BME280;68477;42.698;23.342;2023-08-17T03:25:32;95458.69;;;19.53;68.29
79077;BME280;68477;42.698;23.342;2023-08-17T03:27:59;95460.47;;;19.59;68.86
79077;BME280;68477;42.698;23.342;2023-08-17T03:30:25;95462.41;;;19.08;71.42
79077;BME280;68477;42.698;23.342;2023-08-17T03:32:50;95463.47;;;18.82;72.12
79077;BME280;68477;42.698;23.342;2023-08-17T03:35:15;95454.00;;;19.30;70.36
79077;BME280;68477;42.698;23.342;2023-08-17T03:37:41;95457.78;;;19.40;69.94
79077;BME280;68477;42.698;23.342;2023-08-17T03:40:06;95460.22;;;19.42;69.95
79077;BME280;68477;42.698;23.342;2023-08-17T03:42:32;95464.22;;;19.33;69.93
79077;BME280;68477;42.698;23.342;2023-08-17T03:44:57;95471.31;;;18.77;71.80
79077;BME280;68477;42.698;23.342;2023-08-17T03:47:23;95469.06;;;18.74;71.76
79077;BME280;68477;42.698;23.342;2023-08-17T03:49:48;95466.88;;;19.33;69.77
79077;BME280;68477;42.698;23.342;2023-08-17T03:52:14;95473.69;;;19.47;69.13
79077;BME280;68477;42.698;23.342;2023-08-17T03:54:39;95468.69;;;19.39;69.30
79077;BME280;68477;42.698;23.342;2023-08-17T03:57:05;95464.75;;;19.41;69.17
79077;BME280;68477;42.698;23.342;2023-08-17T03:59:31;95475.25;;;18.68;71.97
79077;BME280;68477;42.698;23.342;2023-08-17T04:01:56;95466.16;;;19.26;69.96
79077;BME280;68477;42.698;23.342;2023-08-17T04:04:21;95473.69;;;19.47;69.09
79077;BME280;68477;42.698;23.342;2023-08-17T04:06:47;95470.91;;;19.42;69.04
79077;BME280;68477;42.698;23.342;2023-08-17T04:09:12;95475.25;;;19.61;68.63
79077;BME280;68477;42.698;23.342;2023-08-17T04:11:38;95478.03;;;19.66;67.92
79077;BME280;68477;42.698;23.342;2023-08-17T04:14:04;95477.50;;;19.94;66.87
79077;BME280;68477;42.698;23.342;2023-08-17T04:16:29;95477.84;;;19.25;69.00
79077;BME280;68477;42.698;23.342;2023-08-17T04:18:55;95475.94;;;19.32;69.89
79077;BME280;68477;42.698;23.342;2023-08-17T04:21:20;95484.59;;;19.45;69.81
79077;BME280;68477;42.698;23.342;2023-08-17T04:23:46;95485.16;;;19.72;68.68
79077;BME280;68477;42.698;23.342;2023-08-17T04:26:12;95482.94;;;19.69;68.83
79077;BME280;68477;42.698;23.342;2023-08-17T04:28:37;95480.22;;;19.14;70.48
79077;BME280;68477;42.698;23.342;2023-08-17T04:31:03;95479.50;;;19.01;70.93
79077;BME280;68477;42.698;23.342;2023-08-17T04:33:28;95479.34;;;19.39;69.61
79077;BME280;68477;42.698;23.342;2023-08-17T04:35:54;95477.47;;;19.21;70.25
79077;BME280;68477;42.698;23.342;2023-08-17T04:38:20;95478.38;;;19.33;69.71
79077;BME280;68477;42.698;23.342;2023-08-17T04:40:46;95476.00;;;19.43;69.22
79077;BME280;68477;42.698;23.342;2023-08-17T04:43:12;95480.69;;;19.48;69.48
79077;BME280;68477;42.698;23.342;2023-08-17T04:45:37;95490.16;;;19.44;68.78
79077;BME280;68477;42.698;23.342;2023-08-17T04:48:03;95480.25;;;19.69;67.77
79077;BME280;68477;42.698;23.342;2023-08-17T04:50:29;95481.41;;;19.92;67.50
79077;BME280;68477;42.698;23.342;2023-08-17T04:52:54;95486.56;;;19.57;67.70
79077;BME280;68477;42.698;23.342;2023-08-17T04:55:20;95481.16;;;19.63;68.02
79077;BME280;68477;42.698;23.342;2023-08-17T04:57:45;95476.78;;;19.87;67.12
79077;BME280;68477;42.698;23.342;2023-08-17T05:00:11;95476.19;;;19.85;66.94
79077;BME280;68477;42.698;23.342;2023-08-17T05:02:37;95476.09;;;20.22;65.45
79077;BME280;68477;42.698;23.342;2023-08-17T05:05:05;95477.28;;;19.96;66.03
79077;BME280;68477;42.698;23.342;2023-08-17T05:07:31;95478.84;;;20.15;65.00
79077;BME280;68477;42.698;23.342;2023-08-17T05:09:56;95471.84;;;20.32;63.82
79077;BME280;68477;42.698;23.342;2023-08-17T05:12:22;95476.84;;;20.29;64.03
79077;BME280;68477;42.698;23.342;2023-08-17T05:14:47;95469.16;;;20.51;63.32
79077;BME280;68477;42.698;23.342;2023-08-17T05:17:12;95476.97;;;20.64;64.70
79077;BME280;68477;42.698;23.342;2023-08-17T05:19:38;95476.19;;;20.87;63.06
79077;BME280;68477;42.698;23.342;2023-08-17T05:22:05;95480.50;;;21.00;61.85
79077;BME280;68477;42.698;23.342;2023-08-17T05:24:31;95479.13;;;21.09;63.51
79077;BME280;68477;42.698;23.342;2023-08-17T05:26:56;95475.03;;;21.06;62.25
79077;BME280;68477;42.698;23.342;2023-08-17T05:29:22;95479.56;;;21.17;62.09
79077;BME280;68477;42.698;23.342;2023-08-17T05:31:47;95479.25;;;21.26;62.12
79077;BME280;68477;42.698;23.342;2023-08-17T05:34:14;95486.00;;;21.40;60.97
79077;BME280;68477;42.698;23.342;2023-08-17T05:36:40;95473.56;;;21.34;61.74
79077;BME280;68477;42.698;23.342;2023-08-17T05:39:06;95480.50;;;21.23;61.87
79077;BME280;68477;42.698;23.342;2023-08-17T05:41:31;95487.41;;;21.42;61.08
79077;BME280;68477;42.698;23.342;2023-08-17T05:43:58;95475.50;;;21.50;60.81
79077;BME280;68477;42.698;23.342;2023-08-17T05:46:23;95481.06;;;21.72;60.03
79077;BME280;68477;42.698;23.342;2023-08-17T05:48:49;95476.50;;;21.84;59.63
79077;BME280;68477;42.698;23.342;2023-08-17T05:51:14;95489.72;;;22.02;59.23
79077;BME280;68477;42.698;23.342;2023-08-17T05:53:40;95483.06;;;22.05;59.31
79077;BME280;68477;42.698;23.342;2023-08-17T05:56:05;95478.91;;;22.09;57.62
79077;BME280;68477;42.698;23.342;2023-08-17T05:58:31;95485.19;;;22.43;57.15
79077;BME280;68477;42.698;23.342;2023-08-17T06:01:04;95490.31;;;22.61;58.12
79077;BME280;68477;42.698;23.342;2023-08-17T06:03:31;95490.75;;;22.70;57.89
79077;BME280;68477;42.698;23.342;2023-08-17T06:05:56;95486.81;;;22.89;58.04
79077;BME280;68477;42.698;23.342;2023-08-17T06:08:22;95492.56;;;22.98;58.43
79077;BME280;68477;42.698;23.342;2023-08-17T06:10:48;95492.81;;;23.13;58.02
79077;BME280;68477;42.698;23.342;2023-08-17T06:13:14;95481.75;;;23.27;58.51
79077;BME280;68477;42.698;23.342;2023-08-17T06:15:39;95478.41;;;23.36;58.61
79077;BME280;68477;42.698;23.342;2023-08-17T06:18:05;95481.84;;;23.53;59.84
79077;BME280;68477;42.698;23.342;2023-08-17T06:20:31;95484.81;;;23.69;58.75
79077;BME280;68477;42.698;23.342;2023-08-17T06:22:56;95476.59;;;23.59;59.85
79077;BME280;68477;42.698;23.342;2023-08-17T06:25:22;95480.16;;;23.86;59.44
79077;BME280;68477;42.698;23.342;2023-08-17T06:27:49;95477.69;;;24.01;59.37
79077;BME280;68477;42.698;23.342;2023-08-17T06:30:15;95479.50;;;24.45;57.60
79077;BME280;68477;42.698;23.342;2023-08-17T06:32:41;95482.16;;;24.66;57.51
79077;BME280;68477;42.698;23.342;2023-08-17T06:35:06;95484.31;;;24.37;56.68
79077;BME280;68477;42.698;23.342;2023-08-17T06:37:34;95487.72;;;24.33;56.56
79077;BME280;68477;42.698;23.342;2023-08-17T06:39:59;95492.16;;;24.44;57.04
79077;BME280;68477;42.698;23.342;2023-08-17T06:42:25;95494.69;;;24.56;55.92
79077;BME280;68477;42.698;23.342;2023-08-17T06:44:50;95491.03;;;24.67;56.02
79077;BME280;68477;42.698;23.342;2023-08-17T06:47:16;95492.91;;;24.93;54.83
79077;BME280;68477;42.698;23.342;2023-08-17T06:49:41;95485.66;;;24.94;54.35
79077;BME280;68477;42.698;23.342;2023-08-17T06:52:06;95492.34;;;25.23;53.21
79077;BME280;68477;42.698;23.342;2023-08-17T06:54:32;95487.16;;;25.12;52.50
79077;BME280;68477;42.698;23.342;2023-08-17T06:56:58;95493.72;;;25.26;51.46
79077;BME280;68477;42.698;23.342;2023-08-17T06:59:23;95490.81;;;25.33;52.15
79077;BME280;68477;42.698;23.342;2023-08-17T07:01:49;95486.34;;;25.48;51.39
79077;BME280;68477;42.698;23.342;2023-08-17T07:04:15;95499.03;;;25.95;50.28
79077;BME280;68477;42.698;23.342;2023-08-17T07:06:40;95489.53;;;25.88;49.50
79077;BME280;68477;42.698;23.342;2023-08-17T07:09:06;95495.25;;;26.01;48.32
79077;BME280;68477;42.698;23.342;2023-08-17T07:11:32;95492.28;;;26.03;48.87
79077;BME280;68477;42.698;23.342;2023-08-17T07:13:59;95492.84;;;26.00;49.27
79077;BME280;68477;42.698;23.342;2023-08-17T07:16:24;95485.03;;;26.03;46.94
79077;BME280;68477;42.698;23.342;2023-08-17T07:18:50;95484.31;;;26.33;45.81
79077;BME280;68477;42.698;23.342;2023-08-17T07:21:15;95486.28;;;26.43;44.28
79077;BME280;68477;42.698;23.342;2023-08-17T07:23:44;95476.56;;;26.42;44.89
79077;BME280;68477;42.698;23.342;2023-08-17T07:26:10;95482.75;;;26.48;43.72
79077;BME280;68477;42.698;23.342;2023-08-17T07:28:36;95482.66;;;26.27;42.95
79077;BME280;68477;42.698;23.342;2023-08-17T07:31:01;95484.13;;;26.55;42.49
79077;BME280;68477;42.698;23.342;2023-08-17T07:33:28;95482.28;;;26.91;42.63
79077;BME280;68477;42.698;23.342;2023-08-17T07:35:53;95485.25;;;26.95;43.21
79077;BME280;68477;42.698;23.342;2023-08-17T07:38:21;95482.84;;;26.73;42.63
79077;BME280;68477;42.698;23.342;2023-08-17T07:40:46;95480.44;;;27.12;41.57
79077;BME280;68477;42.698;23.342;2023-08-17T07:43:12;95480.41;;;26.92;42.41
79077;BME280;68477;42.698;23.342;2023-08-17T07:45:37;95479.09;;;27.15;40.29
79077;BME280;68477;42.698;23.342;2023-08-17T07:48:04;95480.19;;;27.09;40.48
79077;BME280;68477;42.698;23.342;2023-08-17T07:50:29;95486.34;;;27.55;39.82
79077;BME280;68477;42.698;23.342;2023-08-17T07:52:55;95485.28;;;27.46;40.17
79077;BME280;68477;42.698;23.342;2023-08-17T07:55:20;95474.94;;;27.83;39.85
79077;BME280;68477;42.698;23.342;2023-08-17T07:57:46;95480.09;;;27.80;39.81
79077;BME280;68477;42.698;23.342;2023-08-17T08:00:11;95482.31;;;27.17;40.96
79077;BME280;68477;42.698;23.342;2023-08-17T08:02:37;95479.31;;;27.54;40.68
79077;BME280;68477;42.698;23.342;2023-08-17T08:05:03;95466.34;;;27.51;40.81
79077;BME280;68477;42.698;23.342;2023-08-17T08:07:28;95467.28;;;28.11;39.40
79077;BME280;68477;42.698;23.342;2023-08-17T08:09:53;95465.44;;;28.56;37.27
79077;BME280;68477;42.698;23.342;2023-08-17T08:12:19;95463.94;;;28.29;37.49
79077;BME280;68477;42.698;23.342;2023-08-17T08:14:44;95458.75;;;28.43;38.49
79077;BME280;68477;42.698;23.342;2023-08-17T08:17:10;95459.22;;;28.50;37.83
79077;BME280;68477;42.698;23.342;2023-08-17T08:19:35;95460.16;;;29.14;38.31
79077;BME280;68477;42.698;23.342;2023-08-17T08:22:01;95458.13;;;29.59;36.26
79077;BME280;68477;42.698;23.342;2023-08-17T08:24:28;95456.56;;;29.23;34.82
79077;BME280;68477;42.698;23.342;2023-08-17T08:26:59;95453.84;;;28.84;35.85
79077;BME280;68477;42.698;23.342;2023-08-17T08:29:24;95452.06;;;29.09;36.79
79077;BME280;68477;42.698;23.342;2023-08-17T08:31:49;95462.91;;;29.09;36.25
79077;BME280;68477;42.698;23.342;2023-08-17T08:34:15;95466.53;;;29.28;35.87
79077;BME280;68477;42.698;23.342;2023-08-17T08:36:41;95454.81;;;29.33;36.48
79077;BME280;68477;42.698;23.342;2023-08-17T08:39:06;95456.28;;;29.54;36.34
79077;BME280;68477;42.698;23.342;2023-08-17T08:41:34;95460.84;;;29.59;35.70
79077;BME280;68477;42.698;23.342;2023-08-17T08:44:00;95464.44;;;29.20;36.81
79077;BME280;68477;42.698;23.342;2023-08-17T08:46:29;95453.91;;;29.47;36.43
79077;BME280;68477;42.698;23.342;2023-08-17T08:48:55;95456.47;;;29.86;35.66
79077;BME280;68477;42.698;23.342;2023-08-17T08:51:27;95447.69;;;29.95;35.83
79077;BME280;68477;42.698;23.342;2023-08-17T08:54:03;95444.91;;;30.00;35.01
79077;BME280;68477;42.698;23.342;2023-08-17T08:56:35;95441.72;;;29.45;36.15
79077;BME280;68477;42.698;23.342;2023-08-17T08:59:04;95440.50;;;30.09;35.48
79077;BME280;68477;42.698;23.342;2023-08-17T09:01:32;95439.34;;;30.15;35.00
79077;BME280;68477;42.698;23.342;2023-08-17T09:03:59;95437.06;;;30.22;35.45
79077;BME280;68477;42.698;23.342;2023-08-17T09:06:26;95441.59;;;30.08;34.38
79077;BME280;68477;42.698;23.342;2023-08-17T09:08:53;95433.06;;;30.76;34.71
79077;BME280;68477;42.698;23.342;2023-08-17T09:11:18;95436.72;;;30.48;33.70
79077;BME280;68477;42.698;23.342;2023-08-17T09:13:44;95428.94;;;30.60;33.44
79077;BME280;68477;42.698;23.342;2023-08-17T09:16:09;95426.97;;;31.17;32.88
79077;BME280;68477;42.698;23.342;2023-08-17T09:18:35;95430.72;;;31.02;33.28
79077;BME280;68477;42.698;23.342;2023-08-17T09:21:01;95423.81;;;30.77;33.85
79077;BME280;68477;42.698;23.342;2023-08-17T09:23:26;95426.38;;;30.50;34.52
79077;BME280;68477;42.698;23.342;2023-08-17T09:25:52;95423.00;;;30.39;33.84
79077;BME280;68477;42.698;23.342;2023-08-17T09:28:23;95420.78;;;30.41;34.53
79077;BME280;68477;42.698;23.342;2023-08-17T09:33:18;95411.09;;;30.35;34.28
79077;BME280;68477;42.698;23.342;2023-08-17T09:35:43;95410.00;;;30.55;34.08
79077;BME280;68477;42.698;23.342;2023-08-17T09:38:09;95396.28;;;30.84;33.20
79077;BME280;68477;42.698;23.342;2023-08-17T09:40:34;95396.63;;;31.28;33.05
79077;BME280;68477;42.698;23.342;2023-08-17T09:43:02;95408.31;;;31.56;31.57
79077;BME280;68477;42.698;23.342;2023-08-17T09:45:27;95402.47;;;32.18;30.68
79077;BME280;68477;42.698;23.342;2023-08-17T09:47:54;95400.22;;;31.84;30.06
79077;BME280;68477;42.698;23.342;2023-08-17T09:50:23;95382.19;;;32.24;30.11
79077;BME280;68477;42.698;23.342;2023-08-17T09:52:53;95389.50;;;31.88;30.54
79077;BME280;68477;42.698;23.342;2023-08-17T09:55:18;95376.56;;;32.57;30.86
79077;BME280;68477;42.698;23.342;2023-08-17T09:57:45;95370.81;;;32.58;28.49
79077;BME280;68477;42.698;23.342;2023-08-17T10:00:14;95384.00;;;32.15;28.50
79077;BME280;68477;42.698;23.342;2023-08-17T10:02:39;95383.03;;;32.11;28.35
79077;BME280;68477;42.698;23.342;2023-08-17T10:05:05;95381.19;;;32.20;28.66
79077;BME280;68477;42.698;23.342;2023-08-17T10:07:35;95376.69;;;32.02;28.36
79077;BME280;68477;42.698;23.342;2023-08-17T10:10:04;95372.69;;;31.85;28.24
79077;BME280;68477;42.698;23.342;2023-08-17T10:12:44;95373.06;;;31.51;29.27
79077;BME280;68477;42.698;23.342;2023-08-17T10:15:13;95370.69;;;31.77;29.42
79077;BME280;68477;42.698;23.342;2023-08-17T10:18:00;95368.34;;;32.70;28.82
79077;BME280;68477;42.698;23.342;2023-08-17T10:20:29;95366.53;;;31.80;27.89
79077;BME280;68477;42.698;23.342;2023-08-17T10:23:15;95377.22;;;31.76;27.93
79077;BME280;68477;42.698;23.342;2023-08-17T10:25:43;95361.03;;;32.21;27.54
79077;BME280;68477;42.698;23.342;2023-08-17T10:28:12;95370.44;;;31.74;28.42
79077;BME280;68477;42.698;23.342;2023-08-17T10:30:38;95362.63;;;32.58;27.70
79077;BME280;68477;42.698;23.342;2023-08-17T10:33:05;95369.22;;;33.02;27.82
79077;BME280;68477;42.698;23.342;2023-08-17T10:35:32;95361.44;;;33.18;26.92
79077;BME280;68477;42.698;23.342;2023-08-17T10:37:58;95361.97;;;33.20;27.04
79077;BME280;68477;42.698;23.342;2023-08-17T10:40:26;95363.06;;;33.50;26.86
79077;BME280;68477;42.698;23.342;2023-08-17T10:42:55;95354.72;;;33.46;26.42
79077;BME280;68477;42.698;23.342;2023-08-17T10:45:36;95363.09;;;32.52;26.55
79077;BME280;68477;42.698;23.342;2023-08-17T10:50:33;95364.22;;;33.26;27.67
79077;BME280;68477;42.698;23.342;2023-08-17T10:53:08;95361.22;;;33.06;28.01
79077;BME280;68477;42.698;23.342;2023-08-17T10:55:44;95349.09;;;33.43;27.87
79077;BME280;68477;42.698;23.342;2023-08-17T10:58:10;95350.06;;;33.86;26.33
79077;BME280;68477;42.698;23.342;2023-08-17T11:00:40;95345.16;;;34.40;26.41
79077;BME280;68477;42.698;23.342;2023-08-17T11:03:08;95339.50;;;34.28;26.51
79077;BME280;68477;42.698;23.342;2023-08-17T11:05:43;95341.88;;;33.95;26.33
79077;BME280;68477;42.698;23.342;2023-08-17T11:08:11;95344.16;;;33.62;26.68
79077;BME280;68477;42.698;23.342;2023-08-17T11:10:39;95326.31;;;34.30;26.05
79077;BME280;68477;42.698;23.342;2023-08-17T11:13:05;95332.63;;;34.39;26.43
79077;BME280;68477;42.698;23.342;2023-08-17T11:15:42;95336.16;;;34.40;25.88
79077;BME280;68477;42.698;23.342;2023-08-17T11:18:10;95338.69;;;34.19;26.73
79077;BME280;68477;42.698;23.342;2023-08-17T11:20:37;95328.78;;;34.40;26.07
79077;BME280;68477;42.698;23.342;2023-08-17T11:23:04;95334.06;;;34.80;26.59
79077;BME280;68477;42.698;23.342;2023-08-17T11:25:31;95334.53;;;34.82;25.57
79077;BME280;68477;42.698;23.342;2023-08-17T11:27:58;95343.50;;;34.05;25.35
79077;BME280;68477;42.698;23.342;2023-08-17T11:30:24;95327.59;;;33.41;27.08
79077;BME280;68477;42.698;23.342;2023-08-17T11:32:51;95327.84;;;32.78;27.11
79077;BME280;68477;42.698;23.342;2023-08-17T11:35:16;95324.97;;;33.84;26.64
79077;BME280;68477;42.698;23.342;2023-08-17T11:37:42;95318.78;;;34.36;25.90
79077;BME280;68477;42.698;23.342;2023-08-17T11:40:10;95310.91;;;33.51;26.70
79077;BME280;68477;42.698;23.342;2023-08-17T11:42:37;95313.97;;;34.24;26.57
79077;BME280;68477;42.698;23.342;2023-08-17T11:45:03;95321.97;;;34.03;26.08
79077;BME280;68477;42.698;23.342;2023-08-17T11:47:29;95311.31;;;33.76;26.04
79077;BME280;68477;42.698;23.342;2023-08-17T11:49:59;95324.75;;;34.47;26.93
79077;BME280;68477;42.698;23.342;2023-08-17T11:52:29;95309.16;;;34.12;25.58
79077;BME280;68477;42.698;23.342;2023-08-17T11:54:57;95311.44;;;34.45;25.95
79077;BME280;68477;42.698;23.342;2023-08-17T11:57:22;95311.22;;;34.93;25.66
79077;BME280;68477;42.698;23.342;2023-08-17T11:59:52;95308.50;;;34.33;26.67
79077;BME280;68477;42.698;23.342;2023-08-17T12:02:18;95307.81;;;35.52;25.52
79077;BME280;68477;42.698;23.342;2023-08-17T12:04:44;95306.91;;;34.58;25.97
79077;BME280;68477;42.698;23.342;2023-08-17T12:07:10;95314.56;;;34.99;25.50
79077;BME280;68477;42.698;23.342;2023-08-17T12:09:36;95306.88;;;33.40;26.70
79077;BME280;68477;42.698;23.342;2023-08-17T12:12:01;95300.44;;;33.05;27.86
79077;BME280;68477;42.698;23.342;2023-08-17T12:14:27;95306.44;;;34.56;25.61
79077;BME280;68477;42.698;23.342;2023-08-17T12:16:53;95294.38;;;35.21;25.16
79077;BME280;68477;42.698;23.342;2023-08-17T12:19:20;95294.41;;;35.88;24.48
79077;BME280;68477;42.698;23.342;2023-08-17T12:21:48;95302.53;;;33.88;28.22
79077;BME280;68477;42.698;23.342;2023-08-17T12:24:13;95297.97;;;33.66;30.24
79077;BME280;68477;42.698;23.342;2023-08-17T12:26:43;95284.81;;;32.66;32.78
79077;BME280;68477;42.698;23.342;2023-08-17T12:29:09;95289.97;;;33.78;31.78
79077;BME280;68477;42.698;23.342;2023-08-17T12:31:35;95281.53;;;33.40;30.71
79077;BME280;68477;42.698;23.342;2023-08-17T12:34:02;95292.59;;;34.26;30.17
79077;BME280;68477;42.698;23.342;2023-08-17T12:36:28;95280.03;;;33.34;31.35
79077;BME280;68477;42.698;23.342;2023-08-17T12:38:54;95286.97;;;33.00;32.85
79077;BME280;68477;42.698;23.342;2023-08-17T12:41:20;95282.53;;;32.59;32.87
79077;BME280;68477;42.698;23.342;2023-08-17T12:43:46;95281.56;;;32.55;33.13
79077;BME280;68477;42.698;23.342;2023-08-17T12:46:11;95293.38;;;31.78;33.88
79077;BME280;68477;42.698;23.342;2023-08-17T12:48:38;95288.31;;;32.22;34.01
79077;BME280;68477;42.698;23.342;2023-08-17T12:51:03;95289.91;;;32.36;33.68
79077;BME280;68477;42.698;23.342;2023-08-17T12:53:29;95287.41;;;32.49;33.21